Time;durP1;ratioP1;P1;durP2;ratioP2;P2;SDS_P1;SDS_P2;PMS_P1;PMS_P2;Temp;Humidity;BMP_temperature;BMP_pressure;BME280_temperature;BME280_humidity;BME280_pressure;Samples;Min_cycle;Max_cycle;Signal;HPM_P1;HPM_P2
2022/03/17 00:01:40;;;;;;;5.28;4.35;;;17.70;42.50;;;;;;5153730;27;20051;-70
2022/03/17 00:04:06;;;;;;;5.50;4.47;;;17.70;42.60;;;;;;5155033;27;20501;-71
2022/03/17 00:06:31;;;;;;;4.55;4.15;;;17.70;42.60;;;;;;5154904;27;20087;-74
2022/03/17 00:08:57;;;;;;;5.60;4.55;;;17.70;42.60;;;;;;5153705;27;20444;-72
2022/03/17 00:11:26;;;;;;;4.82;4.38;;;17.70;42.60;;;;;;5155202;27;20125;-70
2022/03/17 00:13:51;;;;;;;5.30;4.80;;;17.70;42.60;;;;;;5152611;27;20110;-71
2022/03/17 00:16:17;;;;;;;4.65;4.13;;;17.70;42.60;;;;;;5154937;27;20118;-71
2022/03/17 00:18:42;;;;;;;5.32;4.85;;;17.70;42.70;;;;;;5154026;27;20470;-74
2022/03/17 00:21:08;;;;;;;5.70;5.13;;;17.70;42.60;;;;;;5153444;27;20047;-74
2022/03/17 00:23:34;;;;;;;5.82;4.75;;;17.70;42.70;;;;;;5154813;27;20043;-75
2022/03/17 00:25:59;;;;;;;5.45;4.95;;;17.60;42.70;;;;;;5153703;27;20035;-74
2022/03/17 00:28:25;;;;;;;7.70;6.13;;;17.60;42.70;;;;;;5155027;27;20050;-72
2022/03/17 00:30:50;;;;;;;4.90;4.50;;;17.60;42.70;;;;;;5154618;27;20058;-74
2022/03/17 00:33:19;;;;;;;6.43;5.80;;;17.60;42.80;;;;;;5152703;27;20039;-73
2022/03/17 00:35:44;;;;;;;4.60;4.20;;;17.60;42.80;;;;;;5155167;27;20038;-71
2022/03/17 00:38:14;;;;;;;5.43;4.72;;;17.60;42.90;;;;;;5154023;27;20507;-70
2022/03/17 00:40:41;;;;;;;6.65;5.45;;;17.50;42.80;;;;;;5136591;27;20038;-73
2022/03/17 00:43:12;;;;;;;6.97;5.45;;;17.60;42.80;;;;;;5135794;27;20389;-74
2022/03/17 00:45:39;;;;;;;4.78;4.28;;;17.60;42.80;;;;;;5154387;27;20072;-75
2022/03/17 00:48:05;;;;;;;5.20;4.70;;;17.60;42.80;;;;;;5153159;27;20047;-74
2022/03/17 00:50:32;;;;;;;7.85;5.13;;;17.50;42.80;;;;;;5152618;27;20087;-74
2022/03/17 00:52:59;;;;;;;4.88;4.40;;;17.50;42.80;;;;;;5152256;27;20038;-70
2022/03/17 00:55:25;;;;;;;5.20;4.70;;;17.60;42.80;;;;;;5152199;27;20489;-71
2022/03/17 00:57:51;;;;;;;5.93;4.85;;;17.50;42.80;;;;;;5152906;27;20127;-71
2022/03/17 01:00:18;;;;;;;5.00;4.50;;;17.50;42.80;;;;;;5153320;27;20051;-73
2022/03/17 01:02:46;;;;;;;5.53;5.03;;;17.50;42.80;;;;;;5152574;27;20039;-75
2022/03/17 01:05:13;;;;;;;6.25;4.85;;;17.50;42.90;;;;;;5154128;27;20435;-74
2022/03/17 01:07:38;;;;;;;5.57;5.05;;;17.50;42.90;;;;;;5152195;27;20079;-71
2022/03/17 01:10:05;;;;;;;6.00;5.50;;;17.50;42.80;;;;;;5152867;27;20022;-74
2022/03/17 01:12:32;;;;;;;5.60;5.03;;;17.50;42.80;;;;;;5151803;27;20110;-74
2022/03/17 01:14:58;;;;;;;4.85;4.25;;;17.50;42.80;;;;;;5152176;27;20065;-70
2022/03/17 01:17:24;;;;;;;5.82;4.97;;;17.50;42.80;;;;;;5152929;27;20052;-70
2022/03/17 01:19:49;;;;;;;5.57;5.03;;;17.50;42.90;;;;;;5152521;27;20034;-73
2022/03/17 01:22:16;;;;;;;5.13;4.60;;;17.40;42.80;;;;;;5153447;27;20041;-70
2022/03/17 01:24:42;;;;;;;5.28;4.82;;;17.50;42.90;;;;;;5152099;27;20039;-71
2022/03/17 01:27:08;;;;;;;5.85;4.75;;;17.40;42.90;;;;;;5134817;27;20080;-71
2022/03/17 01:29:34;;;;;;;5.60;4.47;;;17.40;42.90;;;;;;5152017;27;20054;-71
2022/03/17 01:32:00;;;;;;;6.35;5.60;;;17.50;43.00;;;;;;5153339;27;20432;-71
2022/03/17 01:34:25;;;;;;;5.95;4.38;;;17.40;42.90;;;;;;5151158;27;20521;-71
2022/03/17 01:36:51;;;;;;;4.10;3.78;;;17.40;42.90;;;;;;5152566;27;20041;-71
2022/03/17 01:39:17;;;;;;;4.88;4.47;;;17.40;42.90;;;;;;5153090;27;20078;-73
2022/03/17 01:41:43;;;;;;;4.93;4.43;;;17.40;43.00;;;;;;5152565;27;20571;-70
2022/03/17 01:44:08;;;;;;;5.43;4.85;;;17.40;43.00;;;;;;5151943;27;20560;-72
2022/03/17 01:47:26;;;;;;;4.85;4.35;;;17.40;43.00;;;;;;5151968;27;20042;-71
2022/03/17 01:49:20;;;;;;;4.38;3.97;;;17.40;43.00;;;;;;5152908;27;20458;-72
2022/03/17 01:51:47;;;;;;;5.90;4.78;;;17.40;43.00;;;;;;5152501;27;20099;-73
2022/03/17 01:54:14;;;;;;;4.80;4.40;;;17.40;43.00;;;;;;5150263;27;20058;-73
2022/03/17 01:56:44;;;;;;;4.50;4.10;;;17.40;43.10;;;;;;5153273;27;20386;-71
2022/03/17 01:59:10;;;;;;;5.00;4.60;;;17.40;43.10;;;;;;5152462;27;20034;-74
2022/03/17 02:01:38;;;;;;;4.95;4.45;;;17.40;43.10;;;;;;5151954;27;20046;-74
2022/03/17 02:04:03;;;;;;;5.20;4.80;;;17.40;43.10;;;;;;5151293;27;20038;-71
2022/03/17 02:06:29;;;;;;;5.38;4.80;;;17.40;43.20;;;;;;5151536;27;20039;-74
2022/03/17 02:08:55;;;;;;;5.10;4.70;;;17.40;43.20;;;;;;5152834;27;20038;-72
2022/03/17 02:14:06;;;;;;;4.25;3.95;;;17.40;43.30;;;;;;5150999;27;20046;-73
2022/03/17 02:16:32;;;;;;;4.90;4.40;;;17.30;43.30;;;;;;5150946;27;20049;-74
2022/03/17 02:18:59;;;;;;;4.63;4.20;;;17.30;43.30;;;;;;5151065;27;20037;-73
2022/03/17 02:21:25;;;;;;;4.15;3.72;;;17.30;43.30;;;;;;5150882;27;20046;-71
2022/03/17 02:26:39;;;;;;;5.22;4.20;;;17.30;43.40;;;;;;5149686;27;20047;-71
2022/03/17 02:29:04;;;;;;;3.88;3.58;;;17.30;43.40;;;;;;5151725;27;20042;-71
2022/03/17 02:31:32;;;;;;;5.65;5.03;;;17.30;43.40;;;;;;5150453;27;20034;-72
2022/03/17 02:33:58;;;;;;;5.15;4.65;;;17.30;43.60;;;;;;5151156;27;20047;-75
2022/03/17 02:36:24;;;;;;;3.03;2.83;;;17.30;43.70;;;;;;5151545;27;20033;-71
2022/03/17 02:38:50;;;;;;;4.25;3.35;;;17.30;43.60;;;;;;5151716;27;20041;-72
2022/03/17 02:41:23;;;;;;;3.42;2.90;;;17.50;43.30;;;;;;5152326;27;20091;-71
2022/03/17 02:43:51;;;;;;;3.63;2.78;;;18.00;42.60;;;;;;5151735;27;20039;-72
2022/03/17 02:46:17;;;;;;;2.85;2.58;;;18.60;41.40;;;;;;5151843;27;20030;-71
2022/03/17 02:48:49;;;;;;;2.53;2.33;;;19.40;40.00;;;;;;5150246;27;20039;-72
2022/03/17 02:51:14;;;;;;;3.08;2.28;;;20.20;38.50;;;;;;5149911;27;20043;-72
2022/03/17 02:53:40;;;;;;;2.80;2.30;;;20.90;37.30;;;;;;5149893;27;20057;-74
2022/03/17 02:56:05;;;;;;;2.60;2.40;;;21.50;36.20;;;;;;5150448;27;20070;-75
2022/03/17 02:58:31;;;;;;;2.67;2.47;;;22.00;35.30;;;;;;5150870;27;20064;-73
2022/03/17 03:01:00;;;;;;;2.63;2.42;;;22.50;34.60;;;;;;5151385;27;20127;-74
2022/03/17 03:03:25;;;;;;;2.55;2.33;;;22.90;34.00;;;;;;5150188;27;20034;-73
2022/03/17 03:05:57;;;;;;;2.53;2.33;;;23.20;33.50;;;;;;5150497;27;20075;-74
2022/03/17 03:08:26;;;;;;;3.05;2.38;;;23.50;33.10;;;;;;5152273;27;20069;-74
2022/03/17 03:10:52;;;;;;;2.17;1.85;;;23.80;32.70;;;;;;5150739;27;20058;-75
2022/03/17 03:13:17;;;;;;;2.90;2.70;;;24.00;32.30;;;;;;5151382;27;20039;-75
2022/03/17 03:15:43;;;;;;;2.22;2.03;;;24.20;32.00;;;;;;5153213;27;20175;-72
2022/03/17 03:18:09;;;;;;;2.67;2.47;;;24.40;31.80;;;;;;5155531;27;20194;-74
2022/03/17 03:20:34;;;;;;;2.65;2.15;;;24.50;31.50;;;;;;5155388;27;20038;-74
2022/03/17 03:23:00;;;;;;;2.05;1.80;;;24.60;31.30;;;;;;5155878;27;20450;-73
2022/03/17 03:25:26;;;;;;;2.28;2.08;;;24.70;32.00;;;;;;5154892;27;20091;-71
2022/03/17 03:27:51;;;;;;;1.90;1.65;;;24.90;31.10;;;;;;5155161;27;20099;-74
2022/03/17 03:30:20;;;;;;;2.30;2.10;;;24.90;30.90;;;;;;5156034;27;20047;-74
2022/03/17 03:32:47;;;;;;;2.60;1.95;;;25.00;30.80;;;;;;5153662;27;20074;-74
2022/03/17 03:37:59;;;;;;;2.13;1.92;;;25.20;30.60;;;;;;5153853;27;20039;-74
2022/03/17 03:40:25;;;;;;;2.00;1.80;;;25.20;30.50;;;;;;5155411;27;20022;-75
2022/03/17 03:42:51;;;;;;;2.20;2.00;;;25.30;30.40;;;;;;5153939;27;20034;-76
2022/03/17 03:45:17;;;;;;;2.35;1.95;;;25.40;30.40;;;;;;5155077;27;20038;-73
2022/03/17 03:47:43;;;;;;;2.28;2.08;;;25.40;30.30;;;;;;5153330;27;20083;-75
2022/03/17 03:50:09;;;;;;;2.10;1.90;;;25.50;30.30;;;;;;5153650;27;20039;-75
2022/03/17 03:52:35;;;;;;;1.42;1.33;;;25.50;30.20;;;;;;5153573;27;20453;-72
2022/03/17 03:55:01;;;;;;;2.30;2.10;;;25.50;30.10;;;;;;5153872;27;20101;-75
2022/03/17 03:57:26;;;;;;;2.28;1.63;;;25.50;30.10;;;;;;5136388;27;20070;-75
2022/03/17 03:59:52;;;;;;;1.70;1.60;;;25.50;30.10;;;;;;5154969;27;20050;-76
2022/03/17 04:02:18;;;;;;;2.42;1.83;;;25.50;30.10;;;;;;5137063;27;20046;-72
2022/03/17 04:04:44;;;;;;;2.30;1.65;;;25.50;30.10;;;;;;5155346;27;20077;-72
2022/03/17 04:07:11;;;;;;;2.38;1.92;;;25.50;30.10;;;;;;5154933;27;20042;-74
2022/03/17 04:09:40;;;;;;;2.05;1.88;;;25.50;30.20;;;;;;5155095;27;20047;-74
2022/03/17 04:12:09;;;;;;;2.50;2.03;;;25.50;30.30;;;;;;5136407;27;20046;-75
2022/03/17 04:14:34;;;;;;;3.00;1.88;;;25.40;30.30;;;;;;5154056;27;20512;-72
2022/03/17 04:17:00;;;;;;;2.20;2.00;;;25.30;30.40;;;;;;5136021;27;20133;-75
2022/03/17 04:19:28;;;;;;;2.67;2.08;;;25.20;30.60;;;;;;5154311;27;20458;-75
2022/03/17 04:21:54;;;;;;;2.05;1.95;;;25.10;30.80;;;;;;5136863;27;20074;-74
2022/03/17 04:24:21;;;;;;;3.05;2.10;;;24.90;31.00;;;;;;5136557;27;20035;-75
2022/03/17 04:26:47;;;;;;;2.65;2.45;;;24.80;31.20;;;;;;5136496;27;20074;-74
2022/03/17 04:29:14;;;;;;;2.55;2.35;;;24.70;31.50;;;;;;5136218;27;20042;-73
2022/03/17 04:31:42;;;;;;;2.88;2.20;;;24.50;31.50;;;;;;5136388;27;20058;-74
2022/03/17 04:34:08;;;;;;;2.70;1.77;;;24.50;31.70;;;;;;5154433;27;20046;-74
2022/03/17 04:36:35;;;;;;;2.60;2.13;;;24.50;31.70;;;;;;5154279;27;20539;-75
2022/03/17 04:39:02;;;;;;;2.65;2.45;;;24.60;31.70;;;;;;5142224;27;20151;-75
2022/03/17 04:41:28;;;;;;;2.35;2.15;;;24.60;31.60;;;;;;5155134;27;20378;-75
2022/03/17 04:43:54;;;;;;;3.00;2.40;;;24.70;31.60;;;;;;5136432;27;20053;-73
2022/03/17 04:46:20;;;;;;;2.20;2.10;;;24.70;31.50;;;;;;5135547;27;20043;-74
2022/03/17 04:48:46;;;;;;;2.55;2.33;;;24.80;31.50;;;;;;5135919;27;20047;-72
2022/03/17 04:51:11;;;;;;;2.50;2.30;;;24.80;31.40;;;;;;5135945;27;20038;-73
2022/03/17 04:53:37;;;;;;;2.22;2.03;;;24.90;31.50;;;;;;5135382;27;20042;-74
2022/03/17 04:58:44;;;;;;;2.28;2.08;;;25.00;31.40;;;;;;5108338;27;21086;-71
2022/03/17 05:01:12;;;;;;;2.08;1.85;;;25.10;31.50;;;;;;5090522;28;20051;-72
2022/03/17 05:03:39;;;;;;;2.08;1.88;;;25.20;31.40;;;;;;5090540;28;20059;-72
2022/03/17 05:06:05;;;;;;;2.78;2.20;;;25.20;31.40;;;;;;5090331;28;20054;-69
2022/03/17 05:08:35;;;;;;;1.88;1.77;;;25.20;31.40;;;;;;5090029;28;20032;-71
2022/03/17 05:11:02;;;;;;;1.85;1.73;;;25.20;31.40;;;;;;5090273;28;20040;-74
2022/03/17 05:13:28;;;;;;;2.17;2.00;;;25.20;31.40;;;;;;5089755;28;20495;-72
2022/03/17 05:15:54;;;;;;;2.45;2.25;;;25.20;31.40;;;;;;5089509;28;20047;-72
2022/03/17 05:18:20;;;;;;;2.15;1.45;;;25.30;31.40;;;;;;5089223;28;20040;-73
2022/03/17 05:20:49;;;;;;;2.25;1.25;;;25.30;31.50;;;;;;5124148;28;20040;-73
2022/03/17 05:23:17;;;;;;;1.90;1.75;;;25.30;31.40;;;;;;5090389;28;20050;-71
2022/03/17 05:25:44;;;;;;;2.22;1.27;;;25.30;31.40;;;;;;5089868;28;20044;-71
2022/03/17 05:28:11;;;;;;;1.80;1.38;;;25.30;31.50;;;;;;5108461;28;20039;-73
2022/03/17 05:30:38;;;;;;;1.40;1.20;;;25.30;31.40;;;;;;5089695;28;20048;-71
2022/03/17 05:33:05;;;;;;;2.38;1.30;;;25.30;31.50;;;;;;5107511;28;20063;-75
2022/03/17 05:35:31;;;;;;;1.17;0.98;;;25.30;31.50;;;;;;5089141;28;20050;-71
2022/03/17 05:37:58;;;;;;;1.20;1.05;;;25.30;31.40;;;;;;5088982;28;20419;-74
2022/03/17 05:40:25;;;;;;;1.20;1.00;;;25.30;31.40;;;;;;5089931;28;20044;-74
2022/03/17 05:42:55;;;;;;;1.27;1.10;;;25.30;31.50;;;;;;5089185;28;20040;-75
2022/03/17 05:45:22;;;;;;;1.10;0.70;;;25.20;31.40;;;;;;5088967;28;20110;-72
2022/03/17 05:47:50;;;;;;;1.52;0.75;;;25.20;31.40;;;;;;5088933;28;20044;-73
2022/03/17 05:50:20;;;;;;;1.80;0.77;;;25.20;31.50;;;;;;5088931;28;20047;-73
2022/03/17 05:52:46;;;;;;;1.05;0.68;;;25.20;31.50;;;;;;5106928;28;20097;-74
2022/03/17 05:55:14;;;;;;;1.67;0.70;;;25.20;31.50;;;;;;5106476;28;20044;-74
2022/03/17 05:57:42;;;;;;;1.63;0.80;;;25.20;31.50;;;;;;5106254;28;20487;-71
2022/03/17 06:00:10;;;;;;;1.20;0.68;;;25.20;31.50;;;;;;5088723;28;20047;-71
2022/03/17 06:02:37;;;;;;;1.95;0.52;;;25.20;31.60;;;;;;5106957;28;20390;-72
2022/03/17 06:05:05;;;;;;;1.15;0.60;;;25.10;31.50;;;;;;5088849;28;20398;-74
2022/03/17 06:07:48;;;;;;;1.73;0.60;;;25.20;31.60;;;;;;5106556;28;20049;-72
2022/03/17 06:10:18;;;;;;;1.67;0.50;;;25.10;31.60;;;;;;5074404;28;20086;-72
2022/03/17 06:12:44;;;;;;;1.10;0.68;;;25.10;31.60;;;;;;5092638;28;20100;-74
2022/03/17 06:15:11;;;;;;;1.15;0.50;;;25.10;31.60;;;;;;5074438;28;20047;-72
2022/03/17 06:17:43;;;;;;;1.20;0.40;;;25.10;31.60;;;;;;5074326;28;20415;-75
2022/03/17 06:20:12;;;;;;;0.70;0.47;;;25.00;31.60;;;;;;5074492;28;20036;-74
2022/03/17 06:22:40;;;;;;;1.02;0.50;;;25.10;31.70;;;;;;5074130;28;20044;-68
2022/03/17 06:25:08;;;;;;;1.25;0.63;;;24.90;32.20;;;;;;5074935;28;20040;-69
2022/03/17 06:27:35;;;;;;;0.52;0.30;;;24.70;33.00;;;;;;5073164;28;20105;-70
2022/03/17 06:30:03;;;;;;;2.08;0.40;;;24.40;33.50;;;;;;5072909;28;20489;-69
2022/03/17 06:32:29;;;;;;;1.50;0.38;;;24.20;33.90;;;;;;5070942;28;20373;-69
2022/03/17 06:34:57;;;;;;;0.63;0.30;;;24.10;34.10;;;;;;5069669;28;20036;-69
2022/03/17 06:37:23;;;;;;;1.70;0.45;;;24.00;34.30;;;;;;5088016;28;20659;-69
2022/03/17 06:39:49;;;;;;;1.20;0.40;;;23.80;34.60;;;;;;5052472;28;20403;-71
2022/03/17 06:42:14;;;;;;;0.60;0.30;;;23.70;34.80;;;;;;5086125;28;20043;-70
2022/03/17 06:44:40;;;;;;;1.13;0.50;;;23.70;35.00;;;;;;5090060;28;20046;-70
2022/03/17 06:47:06;;;;;;;2.10;0.47;;;23.60;35.00;;;;;;5090598;28;20542;-69
2022/03/17 06:49:31;;;;;;;1.42;0.70;;;23.50;35.10;;;;;;5089742;28;20044;-69
2022/03/17 06:51:58;;;;;;;3.00;0.82;;;23.40;35.10;;;;;;5090182;28;20087;-69
2022/03/17 06:54:24;;;;;;;3.15;0.60;;;23.30;35.10;;;;;;5086421;28;20102;-70
2022/03/17 06:56:50;;;;;;;2.22;0.50;;;23.10;35.20;;;;;;5071044;28;20047;-68
2022/03/17 06:59:15;;;;;;;1.08;0.40;;;23.10;36.20;;;;;;5087967;28;20052;-68
2022/03/17 07:01:41;;;;;;;1.92;0.30;;;23.10;35.50;;;;;;5096756;28;20082;-67
2022/03/17 07:04:07;;;;;;;1.98;0.43;;;23.20;35.70;;;;;;5047305;28;20064;-68
2022/03/17 07:06:32;;;;;;;3.22;0.63;;;23.20;35.50;;;;;;5063462;28;20469;-69
2022/03/17 07:08:58;;;;;;;3.40;0.40;;;23.20;35.30;;;;;;5064221;28;20066;-69
2022/03/17 07:11:24;;;;;;;2.58;0.20;;;23.30;35.30;;;;;;5077630;28;20030;-71
2022/03/17 07:13:49;;;;;;;4.93;0.32;;;23.20;35.20;;;;;;5064727;28;20043;-70
2022/03/17 07:16:15;;;;;;;1.77;0.30;;;23.30;35.20;;;;;;5080549;28;20032;-69
2022/03/17 07:18:43;;;;;;;1.95;0.30;;;23.30;35.00;;;;;;5084088;28;20036;-71
2022/03/17 07:21:09;;;;;;;2.17;0.52;;;23.30;34.80;;;;;;5084991;28;20093;-70
2022/03/17 07:23:35;;;;;;;1.88;0.40;;;23.40;34.80;;;;;;5066550;28;20044;-69
2022/03/17 07:26:03;;;;;;;3.42;0.40;;;23.60;35.00;;;;;;5066086;28;20035;-76
2022/03/17 07:28:28;;;;;;;1.90;0.20;;;23.90;34.40;;;;;;5066151;28;20047;-76
2022/03/17 07:30:54;;;;;;;1.98;0.22;;;24.20;34.40;;;;;;5069716;28;20043;-69
2022/03/17 07:33:20;;;;;;;1.50;0.30;;;24.50;34.10;;;;;;5070463;28;20066;-68
2022/03/17 07:35:46;;;;;;;4.93;0.73;;;24.60;33.30;;;;;;5076498;28;20416;-66
2022/03/17 07:38:12;;;;;;;2.38;0.20;;;24.50;33.30;;;;;;5054151;28;20048;-66
2022/03/17 07:40:37;;;;;;;2.78;0.30;;;24.40;33.60;;;;;;5051995;28;20040;-66
2022/03/17 07:43:04;;;;;;;3.10;0.30;;;24.30;34.00;;;;;;5056859;28;20647;-66
2022/03/17 07:45:30;;;;;;;4.13;0.50;;;24.10;34.40;;;;;;5073105;28;20114;-74
2022/03/17 07:47:55;;;;;;;12.25;0.90;;;23.90;34.30;;;;;;5056337;28;20044;-70
2022/03/17 07:50:21;;;;;;;5.95;0.98;;;23.80;34.50;;;;;;5069205;28;20036;-75
2022/03/17 07:52:47;;;;;;;8.70;0.93;;;23.80;34.90;;;;;;5073635;28;20031;-70
2022/03/17 07:55:13;;;;;;;3.97;0.52;;;24.00;34.90;;;;;;5052080;28;20036;-70
2022/03/17 07:57:39;;;;;;;5.75;0.55;;;24.40;34.60;;;;;;5055869;28;20059;-72
2022/03/17 08:00:08;;;;;;;3.47;0.43;;;24.50;34.20;;;;;;5046354;28;20164;-72
2022/03/17 08:02:33;;;;;;;3.00;0.50;;;24.50;34.20;;;;;;5051917;28;20036;-76
2022/03/17 08:05:01;;;;;;;2.80;0.60;;;24.40;34.40;;;;;;5071198;28;20168;-75
2022/03/17 08:07:28;;;;;;;5.40;0.63;;;24.40;34.30;;;;;;5046996;28;20043;-75
2022/03/17 08:09:54;;;;;;;6.72;1.13;;;24.30;34.50;;;;;;5055979;28;20044;-78
2022/03/17 08:12:20;;;;;;;4.97;0.52;;;24.40;34.50;;;;;;5072436;28;20063;-72
2022/03/17 08:14:46;;;;;;;3.53;0.55;;;24.40;34.10;;;;;;5071038;28;20040;-77
2022/03/17 08:17:12;;;;;;;3.92;0.50;;;24.40;34.10;;;;;;5084024;27;20462;-76
2022/03/17 08:19:38;;;;;;;5.45;0.52;;;24.30;34.20;;;;;;5051198;28;20650;-74
2022/03/17 08:22:03;;;;;;;5.43;0.40;;;24.10;34.60;;;;;;5054639;28;20050;-73
2022/03/17 08:24:29;;;;;;;1.90;0.32;;;24.00;35.00;;;;;;5051272;28;20412;-70
2022/03/17 08:26:55;;;;;;;5.03;0.60;;;23.90;35.10;;;;;;5056303;28;20044;-77
2022/03/17 08:29:21;;;;;;;3.83;0.70;;;23.80;35.40;;;;;;5070446;28;20048;-74
2022/03/17 08:31:47;;;;;;;3.80;0.30;;;23.90;35.50;;;;;;5040085;28;21055;-73
2022/03/17 08:34:13;;;;;;;3.63;0.57;;;24.00;35.40;;;;;;5048483;28;20044;-73
2022/03/17 08:36:39;;;;;;;4.00;0.50;;;24.20;35.10;;;;;;5055533;28;20482;-75
2022/03/17 08:39:05;;;;;;;2.83;0.40;;;24.50;34.80;;;;;;5047432;28;20060;-75
2022/03/17 08:41:31;;;;;;;3.58;0.32;;;24.70;34.40;;;;;;5044734;28;20028;-71
2022/03/17 08:43:57;;;;;;;3.20;0.30;;;24.90;34.10;;;;;;5065151;28;20427;-70
2022/03/17 08:49:26;;;;;;;5.75;0.60;;;24.70;34.50;;;;;;5047264;28;20075;-75
2022/03/17 08:51:56;;;;;;;3.53;0.38;;;24.50;34.60;;;;;;5051834;28;20059;-71
2022/03/17 08:54:25;;;;;;;4.65;0.60;;;24.40;34.80;;;;;;5046191;28;20556;-75
2022/03/17 08:56:59;;;;;;;3.88;0.50;;;24.30;35.00;;;;;;5059133;28;20392;-74
2022/03/17 08:59:30;;;;;;;2.78;0.43;;;24.30;35.10;;;;;;5066355;28;20047;-72
2022/03/17 09:01:58;;;;;;;5.00;0.30;;;24.20;35.20;;;;;;5068226;28;20049;-72
2022/03/17 09:04:30;;;;;;;5.22;0.60;;;24.10;35.30;;;;;;5050586;28;20115;-75
2022/03/17 09:06:59;;;;;;;2.20;0.40;;;24.00;36.10;;;;;;5069011;28;20117;-79
2022/03/17 09:09:26;;;;;;;2.78;0.32;;;24.10;35.40;;;;;;5064544;28;20036;-79
2022/03/17 09:11:52;;;;;;;8.10;0.40;;;24.10;35.20;;;;;;5063669;28;20037;-76
2022/03/17 09:14:18;;;;;;;3.95;0.50;;;24.00;35.30;;;;;;5060037;28;20040;-76
2022/03/17 09:16:44;;;;;;;4.60;0.52;;;24.00;35.30;;;;;;5078347;28;20537;-75
2022/03/17 09:19:09;;;;;;;6.53;0.47;;;24.00;35.30;;;;;;5063481;28;20043;-74
2022/03/17 09:21:35;;;;;;;6.00;0.43;;;24.10;35.10;;;;;;5057795;28;20053;-69
2022/03/17 09:24:03;;;;;;;3.63;0.65;;;24.20;35.10;;;;;;5070701;28;20570;-75
2022/03/17 09:26:30;;;;;;;5.55;0.55;;;24.10;35.90;;;;;;5066912;28;20059;-73
2022/03/17 09:28:59;;;;;;;4.70;0.30;;;24.20;35.10;;;;;;5052032;28;20071;-74
2022/03/17 09:31:26;;;;;;;2.95;0.40;;;24.20;35.00;;;;;;5062749;28;20049;-72
2022/03/17 09:33:55;;;;;;;2.80;0.30;;;24.20;35.00;;;;;;5053655;28;20064;-72
2022/03/17 09:36:22;;;;;;;3.38;0.50;;;24.30;35.00;;;;;;5065194;28;20759;-73
2022/03/17 09:41:35;;;;;;;1.40;0.40;;;24.20;34.70;;;;;;5051078;28;20040;-73
2022/03/17 09:44:04;;;;;;;2.83;0.50;;;24.20;34.60;;;;;;5056241;28;20480;-73
2022/03/17 09:46:31;;;;;;;3.38;0.30;;;24.20;34.40;;;;;;5056145;28;20071;-72
2022/03/17 09:48:57;;;;;;;3.80;0.77;;;24.20;34.40;;;;;;5060269;28;20044;-71
2022/03/17 09:51:25;;;;;;;4.22;0.38;;;24.20;34.30;;;;;;5056730;28;20040;-73
2022/03/17 09:53:53;;;;;;;4.20;0.50;;;24.10;34.00;;;;;;5068521;28;20040;-78
2022/03/17 09:56:23;;;;;;;6.00;0.57;;;23.90;34.10;;;;;;5068375;28;20060;-72
2022/03/17 09:58:51;;;;;;;5.13;0.75;;;23.80;34.40;;;;;;5051310;28;20090;-73
2022/03/17 10:01:22;;;;;;;3.40;0.30;;;23.80;34.60;;;;;;5046833;28;20040;-74
2022/03/17 10:03:48;;;;;;;5.88;0.57;;;23.90;34.50;;;;;;5057951;28;20040;-71
2022/03/17 10:06:17;;;;;;;2.50;0.30;;;24.00;34.40;;;;;;5051790;28;20033;-72
2022/03/17 10:08:48;;;;;;;5.32;0.40;;;24.00;34.40;;;;;;5056563;28;20044;-73
2022/03/17 10:11:16;;;;;;;4.50;0.68;;;24.10;34.50;;;;;;5067004;28;20046;-74
2022/03/17 10:13:45;;;;;;;4.70;0.40;;;24.10;34.60;;;;;;5056994;28;20054;-74
2022/03/17 10:16:17;;;;;;;3.80;0.80;;;24.10;34.50;;;;;;5055433;28;20088;-75
2022/03/17 10:18:45;;;;;;;2.90;0.30;;;24.30;34.40;;;;;;5051644;28;20052;-73
2022/03/17 10:21:16;;;;;;;4.60;0.40;;;24.40;34.30;;;;;;5057403;28;20055;-73
2022/03/17 10:23:44;;;;;;;3.28;0.60;;;24.50;34.30;;;;;;5051548;28;20040;-76
2022/03/17 10:26:11;;;;;;;6.53;0.57;;;24.60;34.20;;;;;;5047051;28;20051;-76
2022/03/17 10:28:38;;;;;;;6.35;0.60;;;24.60;34.20;;;;;;5052462;28;20052;-73
2022/03/17 10:31:06;;;;;;;2.58;0.30;;;24.70;34.10;;;;;;5086453;28;20434;-75
2022/03/17 10:33:35;;;;;;;4.20;0.40;;;24.60;34.20;;;;;;5051183;28;20052;-74
2022/03/17 10:36:21;;;;;;;4.57;0.30;;;24.70;34.40;;;;;;5069481;28;20028;-70
2022/03/17 10:38:48;;;;;;;4.43;0.55;;;24.60;33.80;;;;;;5051152;28;20036;-73
2022/03/17 10:41:15;;;;;;;6.43;0.75;;;24.40;34.10;;;;;;5067881;28;20048;-75
2022/03/17 10:43:43;;;;;;;4.55;0.70;;;24.40;34.60;;;;;;5056602;28;20067;-76
2022/03/17 10:49:07;;;;;;;6.35;0.50;;;24.30;34.70;;;;;;5042432;27;20455;-73
2022/03/17 10:54:18;;;;;;;5.05;0.40;;;24.10;34.50;;;;;;5053450;28;20466;-72
2022/03/17 10:56:59;;;;;;;4.70;0.38;;;23.80;34.80;;;;;;5046013;28;20046;-73
2022/03/17 10:59:36;;;;;;;3.53;0.52;;;23.80;35.00;;;;;;5024564;28;20047;-74
2022/03/17 11:02:08;;;;;;;2.85;0.30;;;23.90;35.00;;;;;;5027841;28;20075;-79
2022/03/17 11:04:35;;;;;;;3.95;0.45;;;23.90;34.80;;;;;;5029958;28;20055;-75
2022/03/17 11:07:10;;;;;;;2.17;0.40;;;24.10;34.80;;;;;;5048039;28;20513;-75
2022/03/17 11:09:38;;;;;;;3.40;0.40;;;24.10;34.70;;;;;;5032032;28;20630;-74
2022/03/17 11:12:09;;;;;;;4.93;0.40;;;24.20;34.70;;;;;;5038548;28;20056;-77
2022/03/17 11:14:43;;;;;;;4.38;0.25;;;24.20;34.60;;;;;;5039806;28;20045;-76
2022/03/17 11:17:14;;;;;;;3.83;0.20;;;24.20;34.70;;;;;;5033712;28;20036;-72
2022/03/17 11:19:43;;;;;;;7.95;0.40;;;24.30;34.60;;;;;;5035242;28;20676;-74
2022/03/17 11:22:15;;;;;;;3.17;0.40;;;24.20;34.40;;;;;;5031903;28;20451;-74
2022/03/17 11:24:41;;;;;;;4.78;0.50;;;24.20;34.60;;;;;;5034273;28;20072;-69
2022/03/17 11:29:49;;;;;;;5.90;0.30;;;24.20;34.70;;;;;;5054832;27;20797;-66
2022/03/17 11:32:31;;;;;;;2.70;0.20;;;24.10;35.00;;;;;;5045104;28;20033;-67
2022/03/17 11:35:09;;;;;;;3.28;0.28;;;24.00;34.20;;;;;;5045065;28;20045;-68
2022/03/17 11:37:35;;;;;;;5.18;0.28;;;23.90;33.50;;;;;;5050633;28;20203;-73
2022/03/17 11:48:02;;;;;;;7.10;0.40;;;23.60;33.30;;;;;;5123167;27;1160809;-71
2022/03/17 11:55:58;;;;;;;5.10;0.40;;;23.60;33.60;;;;;;5096357;27;20451;-71
2022/03/17 12:04:01;;;;;;;4.70;0.38;;;23.80;33.30;;;;;;5115609;27;1164329;-74
2022/03/17 12:06:29;;;;;;;3.55;0.43;;;23.90;33.20;;;;;;5118329;27;20053;-75
2022/03/17 12:08:59;;;;;;;3.15;0.30;;;23.90;33.20;;;;;;5114198;27;20047;-73
2022/03/17 12:11:27;;;;;;;6.03;0.40;;;24.00;33.20;;;;;;5117560;27;20043;-74
2022/03/17 12:16:56;;;;;;;2.95;0.55;;;24.20;32.90;;;;;;5105521;27;1171304;-72
2022/03/17 12:24:49;;;;;;;1.70;0.30;;;24.50;32.60;;;;;;5096919;27;21086;-72
2022/03/17 12:32:49;;;;;;;2.65;0.50;;;24.30;32.90;;;;;;5049537;28;20468;-72
2022/03/17 12:35:20;;;;;;;1.07;0.20;;;24.30;32.70;;;;;;5047434;28;20052;-74
2022/03/17 12:37:46;;;;;;;5.97;0.30;;;24.30;33.60;;;;;;5046957;28;20045;-74
2022/03/17 12:40:18;;;;;;;2.47;0.20;;;24.40;32.80;;;;;;5052502;28;20102;-75
2022/03/17 12:42:47;;;;;;;5.07;0.30;;;24.60;32.60;;;;;;5068913;28;20055;-71
2022/03/17 12:45:16;;;;;;;3.63;0.30;;;24.70;32.40;;;;;;5049497;28;20032;-69
2022/03/17 12:47:46;;;;;;;4.35;0.38;;;24.70;32.40;;;;;;5049488;28;20652;-70
2022/03/17 12:50:15;;;;;;;4.00;0.25;;;24.70;32.40;;;;;;5048664;28;20112;-71
2022/03/17 12:52:43;;;;;;;3.08;0.40;;;24.70;32.40;;;;;;5055301;28;20053;-70
2022/03/17 12:55:12;;;;;;;2.75;0.30;;;24.70;32.50;;;;;;5049277;28;20651;-69
2022/03/17 12:57:39;;;;;;;1.65;0.20;;;24.60;32.60;;;;;;5066201;28;20091;-73
2022/03/17 13:00:10;;;;;;;2.58;0.30;;;24.60;32.70;;;;;;5052231;28;20037;-73
2022/03/17 13:02:36;;;;;;;3.45;0.40;;;24.70;32.70;;;;;;5050676;28;20079;-74
2022/03/17 13:07:50;;;;;;;2.83;0.30;;;24.90;32.60;;;;;;5048547;28;20449;-76
2022/03/17 13:10:17;;;;;;;1.25;0.15;;;24.90;32.40;;;;;;5053088;28;20032;-73
2022/03/17 13:15:29;;;;;;;3.22;0.50;;;25.00;32.10;;;;;;5049046;28;20052;-76
2022/03/17 13:18:02;;;;;;;3.15;0.20;;;24.90;32.30;;;;;;5047994;28;20036;-73
2022/03/17 13:20:28;;;;;;;1.35;0.30;;;24.90;32.40;;;;;;5061792;28;20040;-74
2022/03/17 13:25:41;;;;;;;2.78;0.38;;;25.00;32.20;;;;;;5067495;27;20450;-72
2022/03/17 13:28:12;;;;;;;4.43;0.57;;;24.80;31.80;;;;;;5061294;28;20542;-69
2022/03/17 13:30:45;;;;;;;2.33;0.30;;;24.70;31.40;;;;;;5050291;28;20063;-70
2022/03/17 13:33:12;;;;;;;1.95;0.63;;;24.60;31.50;;;;;;5057897;28;20097;-69
2022/03/17 13:35:46;;;;;;;2.83;0.30;;;24.50;31.60;;;;;;5043745;28;20041;-74
2022/03/17 13:38:18;;;;;;;2.33;0.28;;;24.50;31.30;;;;;;5041661;28;20044;-71
2022/03/17 13:40:51;;;;;;;3.85;0.40;;;24.50;31.30;;;;;;5048094;28;20040;-72
2022/03/17 13:43:24;;;;;;;4.60;0.60;;;24.50;31.30;;;;;;5047454;28;20120;-71
2022/03/17 13:45:50;;;;;;;4.18;0.30;;;24.60;31.30;;;;;;5047217;28;20063;-71
2022/03/17 13:48:19;;;;;;;5.43;0.30;;;24.60;31.20;;;;;;5047578;28;20036;-71
2022/03/17 13:50:54;;;;;;;4.57;0.40;;;24.60;31.20;;;;;;5067218;28;20639;-75
2022/03/17 13:53:39;;;;;;;1.38;0.20;;;24.60;30.10;;;;;;5065019;28;20047;-72